Time;durP1;ratioP1;P1;durP2;ratioP2;P2;SDS_P1;SDS_P2;PMS_P1;PMS_P2;Temp;Humidity;BMP_temperature;BMP_pressure;BME280_temperature;BME280_humidity;BME280_pressure;Samples;Min_cycle;Max_cycle;Signal;HPM_P1;HPM_P2
2022/09/14 00:01:50;;;;;;;4.22;2.00;;;12.90;99.90;;;;;;5044780;28;20054;-62
2022/09/14 00:04:18;;;;;;;4.85;2.15;;;13.00;99.90;;;;;;5049373;28;20041;-62
2022/09/14 00:06:44;;;;;;;3.20;2.25;;;13.00;99.90;;;;;;5043271;28;20045;-62
2022/09/14 00:09:19;;;;;;;5.00;2.40;;;13.00;99.90;;;;;;5055591;28;20151;-63
2022/09/14 00:11:45;;;;;;;8.10;2.40;;;13.00;99.90;;;;;;5042333;28;20510;-63
2022/09/14 00:14:11;;;;;;;2.67;1.95;;;12.70;99.90;;;;;;5055301;28;20063;-63
2022/09/14 00:16:40;;;;;;;5.00;2.22;;;12.90;99.90;;;;;;5050135;28;20034;-63
2022/09/14 00:19:17;;;;;;;4.32;1.98;;;12.80;99.90;;;;;;5046420;28;20082;-63
2022/09/14 00:21:43;;;;;;;8.23;2.28;;;12.90;99.90;;;;;;5054803;28;20525;-63
2022/09/14 00:24:10;;;;;;;7.40;2.78;;;12.70;99.90;;;;;;5053847;28;20033;-63
2022/09/14 00:26:36;;;;;;;4.68;1.58;;;13.00;99.90;;;;;;5055076;28;20481;-63
2022/09/14 00:29:03;;;;;;;5.28;2.70;;;12.70;99.90;;;;;;5054883;28;20037;-63
2022/09/14 00:31:34;;;;;;;7.53;3.45;;;13.00;99.90;;;;;;5054882;28;20084;-63
2022/09/14 00:34:00;;;;;;;8.05;2.33;;;12.80;99.90;;;;;;5054932;28;20041;-63
2022/09/14 00:36:28;;;;;;;3.20;2.13;;;12.90;99.90;;;;;;5044884;28;20407;-63
2022/09/14 00:38:55;;;;;;;6.18;2.88;;;12.90;99.90;;;;;;5049995;28;20076;-63
2022/09/14 00:41:27;;;;;;;5.25;2.33;;;13.00;99.90;;;;;;5054740;28;20037;-63
2022/09/14 00:44:05;;;;;;;4.15;2.50;;;12.90;99.90;;;;;;5054667;28;20032;-63
2022/09/14 00:46:39;;;;;;;4.50;2.20;;;12.80;99.90;;;;;;5053654;28;20036;-63
2022/09/14 00:49:11;;;;;;;4.63;2.65;;;12.80;99.90;;;;;;5053575;28;20045;-63
2022/09/14 00:51:44;;;;;;;4.72;2.33;;;12.70;99.90;;;;;;5053519;28;20072;-63
2022/09/14 00:54:10;;;;;;;2.92;1.77;;;12.60;99.90;;;;;;5039951;28;20484;-63
2022/09/14 00:56:36;;;;;;;3.63;1.65;;;12.60;99.90;;;;;;5053093;28;20045;-63
2022/09/14 00:59:09;;;;;;;3.83;1.42;;;12.70;99.90;;;;;;5054204;28;20386;-63
2022/09/14 01:01:35;;;;;;;4.35;1.27;;;12.60;99.90;;;;;;5052889;28;20534;-63
2022/09/14 01:04:01;;;;;;;4.13;2.13;;;12.80;99.90;;;;;;5053099;28;20053;-63
2022/09/14 01:06:32;;;;;;;5.32;1.88;;;13.70;99.90;;;;;;5054548;28;20487;-63
2022/09/14 01:09:17;;;;;;;6.45;1.15;;;12.90;99.90;;;;;;5053046;28;20041;-66
2022/09/14 01:11:45;;;;;;;4.93;1.60;;;12.80;99.90;;;;;;5039580;28;20041;-63
2022/09/14 01:14:43;;;;;;;4.57;1.60;;;12.90;99.90;;;;;;5054198;28;20073;-63
2022/09/14 01:17:18;;;;;;;5.40;2.13;;;12.70;99.90;;;;;;5043725;28;20037;-63
2022/09/14 01:20:04;;;;;;;4.32;1.90;;;12.60;99.90;;;;;;5052603;28;20052;-63
2022/09/14 01:23:05;;;;;;;4.18;2.25;;;12.80;99.90;;;;;;5053357;28;20052;-63
2022/09/14 01:25:51;;;;;;;7.28;2.30;;;12.60;99.90;;;;;;5028329;28;20061;-63
2022/09/14 01:28:39;;;;;;;5.53;2.42;;;12.60;99.90;;;;;;5035969;28;20036;-63
2022/09/14 01:31:12;;;;;;;4.93;2.70;;;12.80;99.90;;;;;;5040709;28;20115;-63
2022/09/14 01:33:46;;;;;;;6.68;3.08;;;12.70;99.90;;;;;;5038382;28;20131;-63
2022/09/14 01:36:14;;;;;;;4.82;2.72;;;12.80;99.90;;;;;;5053609;28;20041;-63
2022/09/14 01:38:45;;;;;;;5.13;2.30;;;12.80;99.90;;;;;;5053489;28;20041;-63
2022/09/14 01:41:13;;;;;;;8.07;3.72;;;12.80;99.90;;;;;;5053779;28;20076;-63
2022/09/14 01:43:57;;;;;;;4.25;2.60;;;12.80;99.90;;;;;;5053503;28;20128;-63
2022/09/14 01:47:09;;;;;;;5.38;2.53;;;12.90;99.90;;;;;;5056683;28;20041;-63
2022/09/14 01:49:52;;;;;;;4.13;2.42;;;12.90;99.90;;;;;;5034076;28;20036;-63
2022/09/14 01:52:23;;;;;;;8.93;2.70;;;13.00;99.90;;;;;;5052399;28;20124;-63
2022/09/14 01:54:54;;;;;;;8.82;2.45;;;12.90;99.90;;;;;;5053318;28;20406;-66
2022/09/14 01:57:26;;;;;;;5.65;3.17;;;13.00;99.90;;;;;;5052179;28;20506;-63
2022/09/14 01:59:57;;;;;;;8.75;3.22;;;13.00;99.90;;;;;;5053249;28;20049;-63
2022/09/14 02:02:22;;;;;;;5.75;2.00;;;13.00;99.90;;;;;;5051765;28;20572;-63
2022/09/14 02:05:00;;;;;;;6.80;1.90;;;12.90;99.90;;;;;;5051882;28;20128;-63
2022/09/14 02:07:26;;;;;;;4.82;2.20;;;13.20;99.90;;;;;;5063693;28;20041;-63
2022/09/14 02:09:53;;;;;;;5.53;1.90;;;13.10;99.90;;;;;;5053020;28;20043;-63
2022/09/14 02:12:21;;;;;;;7.50;2.28;;;13.00;99.90;;;;;;5053158;28;20040;-63
2022/09/14 02:14:48;;;;;;;4.28;2.47;;;13.10;99.90;;;;;;5053302;28;20072;-63
2022/09/14 02:17:13;;;;;;;6.22;2.75;;;13.20;99.90;;;;;;5052129;28;20510;-63
2022/09/14 02:20:00;;;;;;;4.53;2.45;;;12.90;99.90;;;;;;5053111;28;20080;-63
2022/09/14 02:22:27;;;;;;;7.22;1.90;;;13.00;99.90;;;;;;5052727;28;20051;-63
2022/09/14 02:24:53;;;;;;;4.25;2.28;;;13.00;99.90;;;;;;5052913;28;20041;-63
2022/09/14 02:27:19;;;;;;;5.82;2.78;;;13.00;99.90;;;;;;5051929;28;20041;-63
2022/09/14 02:29:45;;;;;;;4.25;2.40;;;13.00;99.90;;;;;;5047766;28;20484;-63
2022/09/14 02:32:50;;;;;;;5.55;2.85;;;13.00;99.90;;;;;;5042876;28;20052;-63
2022/09/14 02:35:27;;;;;;;3.08;2.20;;;13.00;99.90;;;;;;5040716;28;20081;-63
2022/09/14 02:38:20;;;;;;;4.43;2.90;;;12.90;99.90;;;;;;5052956;28;20037;-63
2022/09/14 02:40:49;;;;;;;5.65;2.90;;;13.10;99.90;;;;;;5040854;28;20051;-63
2022/09/14 02:43:34;;;;;;;5.22;2.72;;;12.90;99.90;;;;;;5050891;28;20549;-63
2022/09/14 02:46:15;;;;;;;4.78;3.15;;;13.20;99.90;;;;;;5052985;28;20052;-63
2022/09/14 02:48:53;;;;;;;6.22;3.53;;;13.20;99.90;;;;;;5038607;28;20045;-63
2022/09/14 02:51:57;;;;;;;5.22;3.47;;;13.00;99.90;;;;;;5051399;28;20044;-63
2022/09/14 02:54:55;;;;;;;6.88;3.58;;;13.10;99.90;;;;;;5052848;28;20037;-63
2022/09/14 02:57:20;;;;;;;6.97;2.85;;;13.00;99.90;;;;;;5039176;28;20422;-63
2022/09/14 02:59:46;;;;;;;6.28;3.03;;;13.10;99.90;;;;;;5039217;28;20054;-63
2022/09/14 03:02:11;;;;;;;5.82;3.85;;;13.00;99.90;;;;;;5051834;28;20045;-63
2022/09/14 03:04:37;;;;;;;10.50;3.80;;;13.10;99.90;;;;;;5041402;28;20399;-64
2022/09/14 03:07:02;;;;;;;4.47;3.20;;;13.00;99.90;;;;;;5056911;28;20040;-63
2022/09/14 03:09:28;;;;;;;7.28;3.25;;;14.30;99.90;;;;;;5052633;28;20040;-63
2022/09/14 03:11:54;;;;;;;5.97;3.30;;;;;;;;;;5052270;28;20029;-64
2022/09/14 03:14:19;;;;;;;6.25;3.35;;;12.80;99.90;;;;;;5052498;28;20633;-63
2022/09/14 03:16:45;;;;;;;5.60;3.45;;;12.80;99.90;;;;;;5051393;28;20071;-63
2022/09/14 03:19:11;;;;;;;3.88;3.20;;;12.70;99.90;;;;;;5052528;28;20487;-63
2022/09/14 03:21:37;;;;;;;5.15;3.70;;;12.70;99.90;;;;;;5051005;28;20495;-63
2022/09/14 03:24:03;;;;;;;6.85;4.43;;;12.80;99.90;;;;;;5052223;28;20617;-63
2022/09/14 03:26:29;;;;;;;6.95;4.43;;;;;;;;;;5052460;28;20120;-64
2022/09/14 03:28:57;;;;;;;7.35;4.32;;;12.70;99.90;;;;;;5052447;28;20067;-63
2022/09/14 03:31:24;;;;;;;11.55;4.35;;;12.90;99.90;;;;;;5048376;28;20034;-63
2022/09/14 03:33:54;;;;;;;6.57;3.25;;;12.70;99.90;;;;;;5049993;28;20044;-63
2022/09/14 03:36:19;;;;;;;6.05;3.83;;;12.90;99.90;;;;;;5041056;28;20044;-63
2022/09/14 03:38:50;;;;;;;6.18;3.85;;;12.80;99.90;;;;;;5054867;28;20045;-63
2022/09/14 03:41:17;;;;;;;9.43;4.18;;;12.90;99.90;;;;;;5054621;28;20486;-63
2022/09/14 03:43:43;;;;;;;8.35;4.10;;;12.90;99.90;;;;;;5055765;28;20503;-63
2022/09/14 03:46:20;;;;;;;7.00;4.38;;;12.80;99.90;;;;;;5054426;28;20045;-63
2022/09/14 03:48:47;;;;;;;7.97;4.70;;;12.80;99.90;;;;;;5054562;28;20048;-63
2022/09/14 03:51:13;;;;;;;5.30;4.30;;;12.90;99.90;;;;;;5054606;28;20406;-63
2022/09/14 03:53:40;;;;;;;9.02;5.38;;;13.10;99.90;;;;;;5055646;28;20037;-63
2022/09/14 03:56:10;;;;;;;7.50;4.13;;;13.00;99.90;;;;;;5055630;28;20041;-63
2022/09/14 03:58:36;;;;;;;8.32;4.95;;;;;;;;;;5055513;28;20033;-63
2022/09/14 04:01:07;;;;;;;7.22;4.57;;;13.00;99.90;;;;;;5055283;28;20056;-63
2022/09/14 04:03:33;;;;;;;8.18;4.45;;;12.90;99.90;;;;;;5054085;28;20501;-63
2022/09/14 04:05:59;;;;;;;8.32;4.20;;;13.00;99.90;;;;;;5057428;28;20047;-63
2022/09/14 04:08:25;;;;;;;8.25;4.50;;;13.10;99.90;;;;;;5059557;28;20044;-63
2022/09/14 04:10:51;;;;;;;5.82;4.10;;;13.10;99.90;;;;;;5055279;28;20033;-63
2022/09/14 04:13:16;;;;;;;7.07;4.05;;;13.10;99.90;;;;;;5055119;28;20403;-63
2022/09/14 04:15:42;;;;;;;10.98;4.88;;;13.20;99.90;;;;;;5055438;28;20033;-62
2022/09/14 04:18:07;;;;;;;7.10;3.75;;;13.20;99.90;;;;;;5054023;28;20036;-63
2022/09/14 04:20:34;;;;;;;5.53;4.30;;;13.20;99.90;;;;;;5055144;28;20191;-63
2022/09/14 04:22:59;;;;;;;5.50;4.30;;;13.30;99.90;;;;;;5053841;28;20045;-63
2022/09/14 04:25:25;;;;;;;10.57;4.93;;;13.20;99.90;;;;;;5053691;28;20052;-63
2022/09/14 04:27:50;;;;;;;6.32;3.17;;;13.50;99.90;;;;;;5048550;28;20040;-63
2022/09/14 04:30:16;;;;;;;5.78;4.28;;;13.00;99.90;;;;;;5047881;28;20037;-63
2022/09/14 04:32:43;;;;;;;10.25;4.90;;;13.30;99.90;;;;;;5054974;28;20376;-62
2022/09/14 04:35:09;;;;;;;7.43;3.85;;;13.00;99.90;;;;;;5053701;28;20106;-63
2022/09/14 04:37:34;;;;;;;6.20;3.42;;;13.20;99.90;;;;;;5053627;28;20049;-63
2022/09/14 04:40:00;;;;;;;5.95;3.85;;;13.20;99.90;;;;;;5053946;28;20043;-63
2022/09/14 04:42:25;;;;;;;6.90;3.70;;;13.10;99.90;;;;;;5054575;28;20112;-63
2022/09/14 04:44:51;;;;;;;6.32;3.55;;;13.20;99.90;;;;;;5053454;28;20108;-63
2022/09/14 04:47:16;;;;;;;4.88;3.15;;;13.30;99.90;;;;;;5053400;28;20041;-63
2022/09/14 04:49:42;;;;;;;5.43;4.38;;;13.40;99.90;;;;;;5053354;28;20066;-63
2022/09/14 04:52:07;;;;;;;6.80;3.58;;;13.30;99.90;;;;;;5053224;28;20163;-63
2022/09/14 04:54:33;;;;;;;5.97;3.33;;;13.30;99.90;;;;;;5054458;28;20064;-62
2022/09/14 04:56:58;;;;;;;3.33;2.42;;;13.30;99.90;;;;;;5053128;28;20040;-63
2022/09/14 04:59:24;;;;;;;5.35;2.70;;;13.40;99.90;;;;;;5054727;28;20120;-63
2022/09/14 05:01:50;;;;;;;6.03;1.95;;;13.30;99.90;;;;;;5054238;28;20055;-63
2022/09/14 05:04:16;;;;;;;8.57;2.03;;;13.20;99.90;;;;;;5044780;28;20046;-63
2022/09/14 05:06:43;;;;;;;6.50;2.00;;;13.30;99.90;;;;;;5057570;28;20036;-63
2022/09/14 05:09:15;;;;;;;7.13;2.45;;;13.20;99.90;;;;;;5053087;28;20040;-63
2022/09/14 05:11:41;;;;;;;5.78;2.15;;;13.30;99.90;;;;;;5054105;28;20137;-63
2022/09/14 05:14:09;;;;;;;7.65;2.08;;;13.30;99.90;;;;;;5054080;28;20037;-63
2022/09/14 05:16:38;;;;;;;2.35;1.77;;;13.40;99.90;;;;;;5054412;28;20450;-62
2022/09/14 05:19:06;;;;;;;3.38;2.10;;;13.30;99.90;;;;;;5039908;28;20055;-63
2022/09/14 05:21:34;;;;;;;6.32;1.90;;;13.30;99.90;;;;;;5052653;28;20037;-63
2022/09/14 05:24:02;;;;;;;5.75;1.70;;;13.40;99.90;;;;;;5052593;28;20514;-63
2022/09/14 05:26:30;;;;;;;4.30;1.60;;;13.40;99.90;;;;;;5053888;28;20098;-63
2022/09/14 05:28:58;;;;;;;2.65;1.58;;;13.60;99.90;;;;;;5052449;28;20052;-63
2022/09/14 05:31:25;;;;;;;5.80;1.65;;;13.50;99.90;;;;;;5053966;28;20182;-63
2022/09/14 05:33:51;;;;;;;3.08;1.65;;;13.40;99.90;;;;;;5052494;28;20053;-63
2022/09/14 05:36:17;;;;;;;3.17;1.80;;;13.40;99.90;;;;;;5053774;28;20522;-63
2022/09/14 05:38:43;;;;;;;8.43;2.95;;;13.30;99.90;;;;;;5053607;28;20041;-63
2022/09/14 05:41:12;;;;;;;3.38;1.77;;;13.40;99.90;;;;;;5052460;28;20434;-63
2022/09/14 05:43:38;;;;;;;5.57;2.78;;;13.40;99.90;;;;;;5052293;28;20049;-63
2022/09/14 05:46:12;;;;;;;5.05;3.17;;;13.40;99.90;;;;;;5039653;28;20033;-64
2022/09/14 05:48:39;;;;;;;3.20;2.45;;;13.20;99.90;;;;;;5053656;28;20040;-63
2022/09/14 05:51:16;;;;;;;7.28;2.63;;;13.40;99.90;;;;;;5052183;28;20059;-63
2022/09/14 05:53:56;;;;;;;6.22;2.22;;;13.60;99.90;;;;;;5052165;28;20064;-63
2022/09/14 05:56:24;;;;;;;4.53;2.00;;;13.50;99.90;;;;;;5053672;28;20112;-63
2022/09/14 05:58:50;;;;;;;6.40;2.65;;;13.30;99.90;;;;;;5053244;28;20036;-63
2022/09/14 06:01:21;;;;;;;6.30;2.53;;;13.50;99.90;;;;;;5053044;28;20053;-63
2022/09/14 06:03:48;;;;;;;6.15;2.92;;;13.40;99.90;;;;;;5053101;28;20041;-63
2022/09/14 06:06:15;;;;;;;6.25;2.85;;;13.40;99.90;;;;;;5057568;28;20128;-63
2022/09/14 06:08:41;;;;;;;5.88;2.88;;;13.60;99.90;;;;;;5056421;28;20037;-63
2022/09/14 06:11:13;;;;;;;6.25;3.53;;;13.60;99.90;;;;;;5035246;28;20055;-63
2022/09/14 06:13:39;;;;;;;7.55;4.38;;;13.80;99.90;;;;;;5052990;28;20047;-63
2022/09/14 06:16:07;;;;;;;6.43;4.07;;;13.80;99.90;;;;;;5053182;28;20037;-63
2022/09/14 06:18:35;;;;;;;6.82;4.15;;;13.80;99.90;;;;;;5051944;28;20045;-63
2022/09/14 06:21:01;;;;;;;9.73;4.68;;;13.80;99.90;;;;;;5039145;28;20105;-63
2022/09/14 06:23:28;;;;;;;5.97;4.35;;;13.70;99.90;;;;;;5052621;28;20063;-62
2022/09/14 06:26:00;;;;;;;5.38;4.35;;;13.90;99.90;;;;;;5051051;28;20116;-63
2022/09/14 06:28:27;;;;;;;7.38;3.95;;;13.90;99.90;;;;;;5045689;28;20534;-63
2022/09/14 06:30:53;;;;;;;9.05;4.70;;;13.90;99.90;;;;;;5048831;28;20040;-63
2022/09/14 06:33:19;;;;;;;10.20;3.95;;;14.00;99.90;;;;;;5049406;28;20515;-63
2022/09/14 06:36:10;;;;;;;5.82;3.80;;;14.10;99.90;;;;;;5051184;28;20438;-63
2022/09/14 06:38:35;;;;;;;5.28;3.53;;;14.20;99.90;;;;;;5051314;28;20510;-63
2022/09/14 06:41:03;;;;;;;6.70;4.18;;;14.20;99.90;;;;;;5052065;28;20120;-63
2022/09/14 06:43:32;;;;;;;7.97;4.18;;;14.30;99.90;;;;;;5045486;28;20607;-64
2022/09/14 06:46:06;;;;;;;10.75;4.43;;;14.10;99.90;;;;;;5048971;28;20029;-64
2022/09/14 06:48:35;;;;;;;9.73;4.20;;;14.00;99.90;;;;;;5049522;28;20041;-63
2022/09/14 06:51:11;;;;;;;8.45;4.28;;;14.20;99.90;;;;;;5043050;28;20499;-64
2022/09/14 06:53:37;;;;;;;8.13;4.75;;;14.30;99.90;;;;;;5037806;28;20059;-64
2022/09/14 06:56:03;;;;;;;16.33;4.90;;;14.50;99.90;;;;;;5036601;28;20488;-64
2022/09/14 06:58:29;;;;;;;10.35;4.70;;;14.30;99.90;;;;;;5049985;28;20076;-64
2022/09/14 07:01:00;;;;;;;10.82;4.88;;;14.30;99.90;;;;;;5051967;28;20487;-64
2022/09/14 07:03:26;;;;;;;7.65;4.47;;;14.50;99.90;;;;;;5051706;28;20152;-63
2022/09/14 07:05:51;;;;;;;8.25;4.50;;;14.70;99.90;;;;;;5051754;28;20546;-63
2022/09/14 07:08:17;;;;;;;7.05;4.22;;;14.60;99.90;;;;;;5061614;28;20045;-63
2022/09/14 07:10:43;;;;;;;14.10;5.28;;;14.60;99.90;;;;;;5056210;28;20068;-64
2022/09/14 07:13:08;;;;;;;7.00;4.15;;;14.40;99.90;;;;;;5056146;28;20044;-65
2022/09/14 07:15:34;;;;;;;9.13;4.30;;;14.80;99.90;;;;;;5054822;28;20497;-64
2022/09/14 07:17:59;;;;;;;6.68;4.68;;;14.80;99.90;;;;;;5056009;28;20036;-64
2022/09/14 07:20:25;;;;;;;13.55;5.00;;;14.90;99.90;;;;;;5055344;28;20037;-64
2022/09/14 07:22:50;;;;;;;9.90;4.60;;;14.80;99.90;;;;;;5056275;28;20068;-63
2022/09/14 07:25:16;;;;;;;10.77;4.70;;;15.10;99.90;;;;;;5054816;28;20454;-63
2022/09/14 07:27:42;;;;;;;10.73;4.43;;;15.10;99.90;;;;;;5054541;28;20041;-63
2022/09/14 07:30:08;;;;;;;12.18;4.15;;;15.10;99.90;;;;;;5054662;28;20041;-62
2022/09/14 07:32:33;;;;;;;7.32;3.35;;;15.10;99.90;;;;;;5054455;28;20037;-63
2022/09/14 07:34:59;;;;;;;8.35;4.15;;;15.10;99.90;;;;;;5055819;28;20078;-61
2022/09/14 07:37:24;;;;;;;11.80;4.18;;;15.10;99.90;;;;;;5054377;28;20041;-61
2022/09/14 07:39:50;;;;;;;9.82;3.90;;;15.30;99.90;;;;;;5049743;28;20134;-63
2022/09/14 07:42:15;;;;;;;7.30;4.25;;;15.30;99.90;;;;;;5054471;28;20124;-61
2022/09/14 07:44:41;;;;;;;7.95;4.28;;;15.30;99.90;;;;;;5055653;28;20080;-63
2022/09/14 07:47:06;;;;;;;5.95;3.30;;;15.40;99.90;;;;;;5055218;28;20037;-63
2022/09/14 07:49:32;;;;;;;7.80;3.97;;;15.40;99.90;;;;;;5055516;28;20503;-62
2022/09/14 07:51:58;;;;;;;6.07;3.70;;;15.60;99.90;;;;;;5055500;28;20398;-63
2022/09/14 07:54:24;;;;;;;7.80;3.05;;;15.30;99.90;;;;;;5050309;28;20122;-61
2022/09/14 07:56:49;;;;;;;5.15;2.78;;;15.60;99.90;;;;;;5051007;28;20088;-63
2022/09/14 07:59:15;;;;;;;5.95;2.40;;;15.60;99.90;;;;;;5044449;28;20041;-63
2022/09/14 08:01:41;;;;;;;6.28;3.10;;;15.70;99.90;;;;;;5053825;28;20394;-63
2022/09/14 08:04:08;;;;;;;4.55;2.55;;;15.80;99.90;;;;;;5036173;28;20116;-62
2022/09/14 08:06:34;;;;;;;7.50;3.13;;;15.80;99.90;;;;;;5057400;28;20032;-62
2022/09/14 08:09:04;;;;;;;8.63;2.90;;;15.80;99.90;;;;;;5050527;28;20117;-62
2022/09/14 08:11:33;;;;;;;3.83;2.63;;;15.90;99.90;;;;;;5047103;28;20072;-63
2022/09/14 08:14:01;;;;;;;6.45;2.80;;;15.90;99.90;;;;;;5041285;28;20041;-63
2022/09/14 08:16:28;;;;;;;5.63;2.28;;;16.10;99.90;;;;;;5053856;28;20044;-64
2022/09/14 08:18:59;;;;;;;5.03;2.00;;;15.90;99.90;;;;;;5041215;28;20519;-64
2022/09/14 08:21:26;;;;;;;5.43;2.63;;;16.00;99.90;;;;;;5043822;28;20096;-64
2022/09/14 08:23:51;;;;;;;7.00;2.13;;;16.10;99.90;;;;;;5049481;28;20045;-64
2022/09/14 08:26:20;;;;;;;5.45;1.80;;;16.20;99.90;;;;;;5054712;28;20120;-65
2022/09/14 08:28:46;;;;;;;4.95;1.67;;;16.30;99.90;;;;;;5053265;28;20449;-65
2022/09/14 08:31:15;;;;;;;4.90;1.63;;;16.20;99.90;;;;;;5053243;28;20033;-64
2022/09/14 08:33:43;;;;;;;7.85;1.88;;;16.40;99.90;;;;;;5046759;28;20415;-65
2022/09/14 08:36:11;;;;;;;3.80;1.65;;;16.50;99.90;;;;;;5055235;28;20040;-65
2022/09/14 08:38:37;;;;;;;4.55;1.70;;;16.30;99.90;;;;;;5048323;28;20120;-65
2022/09/14 08:41:33;;;;;;;2.45;1.35;;;16.50;99.90;;;;;;5052230;28;20503;-65
2022/09/14 08:44:04;;;;;;;5.90;1.92;;;16.50;99.90;;;;;;5048063;28;20503;-65
2022/09/14 08:46:37;;;;;;;4.22;2.15;;;16.40;99.90;;;;;;5053472;28;20068;-65
2022/09/14 08:49:12;;;;;;;4.57;1.48;;;16.70;99.90;;;;;;5063237;28;20052;-65
2022/09/14 08:51:38;;;;;;;6.05;2.15;;;16.50;99.90;;;;;;5054501;28;20528;-65
2022/09/14 08:54:03;;;;;;;6.50;1.75;;;16.50;99.90;;;;;;5047476;28;20029;-65
2022/09/14 08:56:35;;;;;;;7.88;1.52;;;16.80;99.90;;;;;;5054636;28;20492;-65
2022/09/14 08:59:26;;;;;;;8.77;1.58;;;16.90;99.90;;;;;;5054866;28;20048;-64
2022/09/14 09:02:18;;;;;;;3.22;1.10;;;16.90;99.90;;;;;;5053169;28;20053;-65
2022/09/14 09:05:02;;;;;;;5.85;1.20;;;17.10;99.90;;;;;;5053198;28;20106;-65
2022/09/14 09:07:31;;;;;;;4.00;1.02;;;17.30;99.90;;;;;;5041301;28;20033;-65
2022/09/14 09:09:58;;;;;;;7.43;1.40;;;17.20;99.90;;;;;;5053076;28;20086;-65
2022/09/14 09:12:47;;;;;;;5.80;1.20;;;17.60;99.90;;;;;;5053122;28;20048;-65
2022/09/14 09:15:35;;;;;;;5.47;0.90;;;17.70;99.90;;;;;;5054255;28;20454;-65
2022/09/14 09:18:07;;;;;;;8.57;1.17;;;17.80;99.90;;;;;;5054460;28;20052;-64
2022/09/14 09:20:37;;;;;;;4.57;0.80;;;17.90;99.90;;;;;;5036069;28;20063;-65
2022/09/14 09:23:14;;;;;;;6.00;0.90;;;17.90;99.90;;;;;;5054066;28;20413;-65
2022/09/14 09:25:51;;;;;;;6.13;1.50;;;18.10;99.90;;;;;;5054005;28;20037;-65
2022/09/14 09:28:17;;;;;;;4.38;1.05;;;18.20;99.90;;;;;;5047793;28;20403;-65
2022/09/14 09:30:44;;;;;;;5.32;0.90;;;18.10;99.90;;;;;;5048195;28;20045;-65
2022/09/14 09:33:25;;;;;;;7.80;1.23;;;18.40;99.90;;;;;;5042037;28;20458;-65
2022/09/14 09:35:53;;;;;;;7.20;0.95;;;18.30;99.90;;;;;;5052486;28;20603;-65
2022/09/14 09:38:23;;;;;;;9.88;1.00;;;18.40;99.90;;;;;;5045237;28;20496;-65
2022/09/14 09:41:06;;;;;;;4.15;0.82;;;18.60;99.90;;;;;;5047925;28;20048;-65
2022/09/14 09:43:32;;;;;;;2.53;0.57;;;18.60;99.90;;;;;;5052399;28;20487;-65
2022/09/14 09:46:06;;;;;;;7.53;1.27;;;18.70;99.90;;;;;;5037966;28;20033;-66
2022/09/14 09:48:41;;;;;;;2.77;0.60;;;19.10;99.90;;;;;;5041385;28;20041;-65
2022/09/14 09:51:09;;;;;;;;;;;19.10;99.90;;;;;;5054191;28;20037;-65
2022/09/14 09:53:47;;;;;;;5.93;0.70;;;19.40;99.90;;;;;;5045153;28;19924;-65
2022/09/14 09:56:30;;;;;;;4.57;0.60;;;19.10;99.90;;;;;;5044403;28;20049;-65
2022/09/14 09:58:56;;;;;;;5.32;1.15;;;19.40;99.90;;;;;;5040098;28;20037;-65
2022/09/14 10:01:34;;;;;;;2.58;0.75;;;19.50;99.90;;;;;;5052743;28;20053;-66
2022/09/14 10:04:28;;;;;;;2.47;0.47;;;19.50;99.90;;;;;;5044177;28;20175;-65
2022/09/14 10:06:56;;;;;;;1.95;0.50;;;19.40;99.90;;;;;;5048173;28;20052;-65
2022/09/14 10:09:27;;;;;;;8.07;0.80;;;19.10;99.90;;;;;;5051733;28;20036;-65
2022/09/14 10:11:57;;;;;;;3.97;0.88;;;19.10;99.90;;;;;;5049461;28;20044;-65
2022/09/14 10:14:36;;;;;;;1.42;0.50;;;18.70;99.90;;;;;;5052362;28;20095;-65
2022/09/14 10:17:20;;;;;;;5.90;0.60;;;18.50;99.90;;;;;;5051919;28;20490;-65
2022/09/14 10:19:53;;;;;;;4.70;0.70;;;18.70;99.90;;;;;;5051808;28;20052;-65
2022/09/14 10:22:31;;;;;;;5.75;0.77;;;18.80;99.90;;;;;;5052957;28;20037;-65
2022/09/14 10:25:21;;;;;;;3.80;0.55;;;18.80;99.90;;;;;;5052739;28;20063;-65
2022/09/14 10:27:55;;;;;;;5.10;1.05;;;18.80;99.90;;;;;;5049495;28;20044;-65
2022/09/14 10:30:48;;;;;;;2.93;0.40;;;19.00;99.90;;;;;;5044898;28;20040;-65
2022/09/14 10:33:16;;;;;;;5.15;0.75;;;19.10;99.90;;;;;;5031638;28;20096;-65
2022/09/14 10:35:49;;;;;;;5.90;0.40;;;19.10;99.90;;;;;;5048737;28;20091;-65
2022/09/14 10:38:38;;;;;;;4.68;1.05;;;19.30;99.90;;;;;;5046892;28;20495;-65
2022/09/14 10:41:30;;;;;;;3.90;0.43;;;19.50;99.90;;;;;;5050451;28;20091;-66
2022/09/14 10:44:27;;;;;;;4.57;0.40;;;19.30;99.90;;;;;;5045878;28;20044;-65
2022/09/14 10:47:20;;;;;;;3.92;0.50;;;19.30;99.90;;;;;;5039475;28;20033;-66
2022/09/14 10:50:19;;;;;;;6.43;0.77;;;19.20;99.90;;;;;;5037290;28;20446;-66
2022/09/14 10:52:54;;;;;;;3.33;0.60;;;19.30;99.90;;;;;;5040295;28;20037;-66
2022/09/14 10:55:41;;;;;;;;;;;19.50;99.90;;;;;;5052155;28;20048;-66
2022/09/14 10:58:40;;;;;;;5.22;0.80;;;19.30;99.90;;;;;;5052432;28;19924;-65
2022/09/14 11:01:28;;;;;;;6.35;0.60;;;19.70;99.90;;;;;;5035030;28;20446;-65
2022/09/14 11:04:04;;;;;;;6.07;0.95;;;19.50;99.90;;;;;;5040612;28;20095;-65
2022/09/14 11:07:03;;;;;;;4.50;0.57;;;19.40;99.90;;;;;;5038584;28;20430;-66
2022/09/14 11:09:52;;;;;;;9.23;0.80;;;19.50;99.90;;;;;;5047122;28;20033;-65
2022/09/14 11:12:52;;;;;;;2.50;0.35;;;19.40;99.90;;;;;;5038359;28;20507;-65
2022/09/14 11:15:23;;;;;;;3.83;0.57;;;19.10;99.90;;;;;;5037547;28;20049;-65
2022/09/14 11:18:13;;;;;;;3.65;0.50;;;19.50;99.90;;;;;;5048160;28;20040;-66
2022/09/14 11:21:10;;;;;;;9.63;1.15;;;19.40;99.90;;;;;;5050872;28;20037;-65
2022/09/14 11:23:56;;;;;;;6.18;0.75;;;19.40;99.90;;;;;;5045815;28;20402;-66
2022/09/14 11:26:39;;;;;;;4.90;0.85;;;19.60;99.90;;;;;;5050322;28;20483;-66
2022/09/14 11:29:23;;;;;;;3.95;0.70;;;19.70;99.90;;;;;;5052371;28;20402;-66
2022/09/14 11:31:53;;;;;;;5.15;0.50;;;19.50;99.90;;;;;;5064909;28;20045;-66
2022/09/14 11:34:22;;;;;;;1.77;0.45;;;19.80;99.90;;;;;;5051823;28;20499;-66
2022/09/14 11:36:55;;;;;;;3.25;0.50;;;19.90;99.90;;;;;;5041627;28;20102;-66
2022/09/14 11:39:38;;;;;;;2.35;0.50;;;19.60;99.90;;;;;;5052176;28;20048;-66
2022/09/14 11:42:17;;;;;;;5.82;0.60;;;19.70;99.90;;;;;;5058297;28;20077;-67
2022/09/14 11:44:45;;;;;;;3.50;0.73;;;20.10;99.90;;;;;;5045717;28;20494;-66
2022/09/14 11:47:17;;;;;;;3.25;0.55;;;19.80;99.90;;;;;;5046022;28;20060;-65
2022/09/14 11:50:01;;;;;;;3.25;0.57;;;19.90;99.90;;;;;;5042630;28;20116;-66
2022/09/14 11:52:29;;;;;;;4.73;0.50;;;19.70;99.90;;;;;;5043839;28;20049;-66
2022/09/14 11:54:55;;;;;;;4.38;0.45;;;19.70;99.90;;;;;;5045388;28;20500;-66
2022/09/14 11:57:27;;;;;;;3.55;0.60;;;19.80;99.90;;;;;;5047125;28;20045;-66
2022/09/14 11:59:55;;;;;;;4.63;0.30;;;19.90;99.90;;;;;;5048952;28;20060;-66
2022/09/14 12:02:23;;;;;;;3.05;0.60;;;19.70;99.90;;;;;;5048219;28;20525;-66
2022/09/14 12:05:08;;;;;;;3.60;0.38;;;19.50;99.90;;;;;;5050337;28;20124;-66
2022/09/14 12:07:42;;;;;;;5.38;1.30;;;19.90;99.90;;;;;;5057530;28;20041;-66
2022/09/14 12:10:18;;;;;;;;;;;19.70;99.90;;;;;;5043927;28;20068;-66
2022/09/14 12:12:52;;;;;;;0.77;0.30;;;19.40;99.90;;;;;;5050198;28;19917;-66
2022/09/14 12:15:25;;;;;;;2.95;0.50;;;19.40;99.90;;;;;;5043130;28;20037;-66
2022/09/14 12:18:12;;;;;;;2.03;0.30;;;19.50;99.90;;;;;;5048828;28;20045;-65
2022/09/14 12:20:41;;;;;;;1.98;0.40;;;19.40;99.90;;;;;;5031748;28;20053;-66
2022/09/14 12:23:36;;;;;;;2.40;0.20;;;19.40;99.90;;;;;;5042895;28;20559;-65
2022/09/14 12:26:04;;;;;;;2.10;0.43;;;19.30;99.90;;;;;;5062753;28;20041;-66
2022/09/14 12:28:36;;;;;;;3.53;0.70;;;19.40;99.90;;;;;;5044300;28;20098;-65
2022/09/14 12:31:02;;;;;;;1.15;0.30;;;19.50;99.90;;;;;;5045210;28;20045;-66
2022/09/14 12:33:30;;;;;;;7.80;1.00;;;19.60;99.90;;;;;;5046142;28;20183;-66
2022/09/14 12:36:10;;;;;;;5.18;0.40;;;19.40;99.90;;;;;;5050674;28;20059;-66
2022/09/14 12:38:35;;;;;;;2.00;0.43;;;19.40;99.90;;;;;;5045673;28;20068;-66
2022/09/14 12:41:07;;;;;;;3.65;0.50;;;19.50;99.90;;;;;;5048887;28;20067;-67
2022/09/14 12:43:36;;;;;;;3.30;0.57;;;19.60;99.90;;;;;;5051583;28;20045;-66
2022/09/14 12:46:06;;;;;;;3.35;0.57;;;19.80;99.90;;;;;;5037901;28;20045;-66
2022/09/14 12:48:47;;;;;;;3.15;0.70;;;19.70;99.90;;;;;;5046087;28;20094;-66
2022/09/14 12:51:29;;;;;;;4.75;0.50;;;19.80;99.90;;;;;;5047002;28;20446;-65
2022/09/14 12:54:07;;;;;;;2.58;0.50;;;19.80;99.90;;;;;;5051843;28;20056;-65
2022/09/14 12:56:39;;;;;;;4.88;0.50;;;19.90;99.90;;;;;;5052945;28;20048;-66
2022/09/14 12:59:21;;;;;;;3.22;0.45;;;19.70;99.90;;;;;;5052402;28;20124;-66
2022/09/14 13:01:53;;;;;;;4.65;0.40;;;19.90;99.90;;;;;;5046564;28;20099;-67
2022/09/14 13:04:26;;;;;;;3.70;0.40;;;21.30;99.90;;;;;;5040021;28;20045;-64
2022/09/14 13:06:54;;;;;;;6.60;1.25;;;19.80;99.90;;;;;;5051427;28;20033;-65
2022/09/14 13:09:25;;;;;;;1.58;0.20;;;19.90;99.90;;;;;;5053924;28;20089;-65
2022/09/14 13:12:05;;;;;;;3.45;0.70;;;20.00;99.90;;;;;;5047611;28;20048;-66
2022/09/14 13:14:36;;;;;;;2.40;0.63;;;20.10;99.90;;;;;;5053206;28;20048;-65